createdAt,value
2018-03-16T00:01:30.913Z,25.87
2018-03-16T00:03:58.472Z,27.43
2018-03-16T00:06:25.989Z,32.60
2018-03-16T00:08:53.970Z,31.58
2018-03-16T00:11:21.926Z,35.37
2018-03-16T00:13:50.825Z,26.13
2018-03-16T00:16:18.389Z,27.20
2018-03-16T00:18:45.949Z,23.92
2018-03-16T00:21:13.906Z,24.90
2018-03-16T00:23:41.863Z,26.67
2018-03-16T00:26:09.396Z,30.03
2018-03-16T00:28:38.640Z,31.48
2018-03-16T00:31:06.578Z,31.37
2018-03-16T00:33:34.174Z,30.03
2018-03-16T00:36:02.110Z,31.83
2018-03-16T00:38:29.650Z,31.33
2018-03-16T00:40:57.221Z,31.33
2018-03-16T00:43:24.774Z,31.12
2018-03-16T00:45:52.320Z,29.07
2018-03-16T00:48:19.947Z,29.00
2018-03-16T00:50:49.134Z,33.77
2018-03-16T00:53:17.133Z,32.80
2018-03-16T00:55:45.002Z,28.75
2018-03-16T00:58:12.818Z,25.05
2018-03-16T01:00:41.020Z,30.23
2018-03-16T01:03:09.205Z,31.50
2018-03-16T01:05:36.751Z,29.20
2018-03-16T01:08:04.549Z,29.10
2018-03-16T01:10:32.602Z,31.67
2018-03-16T01:13:00.180Z,29.17
2018-03-16T01:15:30.250Z,34.05
2018-03-16T01:17:57.880Z,31.10
2018-03-16T01:23:28.090Z,34.15
2018-03-16T01:25:55.708Z,30.73
2018-03-16T01:28:23.682Z,33.40
2018-03-16T01:30:52.432Z,29.40
2018-03-16T01:33:19.983Z,29.37
2018-03-16T01:35:47.597Z,33.35
2018-03-16T01:38:15.840Z,34.13
2018-03-16T01:40:43.578Z,36.97
2018-03-16T01:43:11.120Z,35.77
2018-03-16T01:45:38.656Z,40.00
2018-03-16T01:48:06.202Z,34.53
2018-03-16T01:50:34.167Z,33.13
2018-03-16T01:53:16.993Z,32.03
2018-03-16T01:55:45.856Z,38.37
2018-03-16T01:58:13.483Z,34.67
2018-03-16T02:00:41.027Z,32.53
2018-03-16T02:03:09.542Z,30.70
2018-03-16T02:05:37.113Z,34.27
2018-03-16T02:08:04.679Z,33.97
2018-03-16T02:10:32.248Z,41.53
2018-03-16T02:12:59.829Z,35.70
2018-03-16T02:15:27.773Z,35.40
2018-03-16T02:17:55.578Z,38.90
2018-03-16T02:20:23.695Z,35.83
2018-03-16T02:22:51.813Z,40.10
2018-03-16T02:25:19.942Z,37.43
2018-03-16T02:27:47.548Z,35.83
2018-03-16T02:30:15.571Z,37.03
2018-03-16T02:32:44.016Z,41.00
2018-03-16T02:35:11.822Z,40.47
2018-03-16T02:37:39.387Z,37.10
2018-03-16T02:40:07.219Z,40.00
2018-03-16T02:42:34.773Z,40.15
2018-03-16T02:45:02.384Z,41.13
2018-03-16T02:47:30.713Z,39.53
2018-03-16T02:49:59.573Z,33.50
2018-03-16T02:52:27.929Z,35.65
2018-03-16T02:54:55.692Z,32.60
2018-03-16T02:57:24.262Z,35.87
2018-03-16T02:59:51.829Z,39.50
2018-03-16T03:02:19.813Z,42.87
2018-03-16T03:04:47.338Z,36.88
2018-03-16T03:07:14.921Z,37.73
2018-03-16T03:09:42.474Z,37.07
2018-03-16T03:12:10.122Z,40.40
2018-03-16T03:14:37.751Z,40.70
2018-03-16T03:17:05.312Z,40.90
2018-03-16T03:19:32.905Z,40.87
2018-03-16T03:22:00.513Z,39.50
2018-03-16T03:24:28.330Z,40.07
2018-03-16T03:26:55.874Z,40.27
2018-03-16T03:29:24.157Z,38.13
2018-03-16T03:31:52.445Z,40.65
2018-03-16T03:34:20.066Z,46.90
2018-03-16T03:36:47.619Z,41.60
2018-03-16T03:39:15.344Z,39.70
2018-03-16T03:41:43.095Z,42.10
2018-03-16T03:44:10.660Z,40.30
2018-03-16T03:46:38.236Z,41.13
2018-03-16T03:49:05.802Z,38.97
2018-03-16T03:51:34.538Z,46.73
2018-03-16T03:54:02.251Z,41.63
2018-03-16T03:56:30.728Z,43.67
2018-03-16T03:58:58.290Z,42.20
2018-03-16T04:01:25.839Z,47.20
2018-03-16T04:03:53.967Z,43.33
2018-03-16T04:06:21.831Z,43.00
2018-03-16T04:08:49.366Z,42.50
2018-03-16T04:11:16.947Z,42.03
2018-03-16T04:13:44.648Z,44.17
2018-03-16T04:16:12.242Z,48.23
2018-03-16T04:18:40.198Z,47.97
2018-03-16T04:21:09.643Z,44.47
2018-03-16T04:23:37.424Z,45.20
2018-03-16T04:26:05.779Z,38.83
2018-03-16T04:28:33.541Z,42.30
2018-03-16T04:31:01.513Z,45.67
2018-03-16T04:33:29.064Z,46.35
2018-03-16T04:35:56.637Z,48.28
2018-03-16T04:38:24.282Z,47.57
2018-03-16T04:40:52.298Z,48.53
2018-03-16T04:43:21.214Z,47.90
2018-03-16T04:45:48.768Z,47.50
2018-03-16T04:48:16.325Z,47.07
2018-03-16T04:50:43.871Z,41.58
2018-03-16T04:53:11.485Z,45.43
2018-03-16T04:55:39.443Z,48.27
2018-03-16T04:58:07.406Z,47.58
2018-03-16T05:00:36.053Z,45.80
2018-03-16T05:03:03.594Z,47.47
2018-03-16T05:05:31.141Z,49.95
2018-03-16T05:07:59.745Z,52.60
2018-03-16T05:10:27.343Z,54.20
2018-03-16T05:12:54.869Z,52.67
2018-03-16T05:15:23.073Z,48.80
2018-03-16T05:17:50.711Z,53.73
2018-03-16T05:20:18.289Z,50.70
2018-03-16T05:22:45.870Z,53.60
2018-03-16T05:25:14.270Z,54.57
2018-03-16T05:27:41.882Z,55.33
2018-03-16T05:30:09.717Z,52.62
2018-03-16T05:32:38.304Z,53.03
2018-03-16T05:35:05.872Z,48.80
2018-03-16T05:37:33.918Z,47.53
2018-03-16T05:40:02.147Z,51.70
2018-03-16T05:42:29.718Z,53.42
2018-03-16T05:44:57.315Z,47.95
2018-03-16T05:47:24.918Z,55.17
2018-03-16T05:49:52.606Z,58.40
2018-03-16T05:52:20.574Z,58.20
2018-03-16T05:54:48.551Z,55.57
2018-03-16T05:57:16.137Z,52.57
2018-03-16T05:59:43.737Z,55.65
2018-03-16T06:02:12.610Z,52.27
2018-03-16T06:04:41.389Z,54.50
2018-03-16T06:07:08.958Z,54.85
2018-03-16T06:09:36.776Z,52.23
2018-03-16T06:12:04.811Z,53.03
2018-03-16T06:14:32.423Z,48.43
2018-03-16T06:17:00.400Z,52.57
2018-03-16T06:19:28.001Z,49.17
2018-03-16T06:21:55.621Z,52.00
2018-03-16T06:24:23.431Z,50.90
2018-03-16T06:30:19.027Z,44.60
2018-03-16T06:33:01.953Z,50.10
2018-03-16T06:35:35.545Z,43.90
2018-03-16T06:38:11.600Z,46.90
2018-03-16T06:40:48.522Z,49.28
2018-03-16T06:43:20.409Z,48.67
2018-03-16T06:45:56.776Z,45.00
2018-03-16T06:48:34.278Z,50.57
2018-03-16T06:51:16.871Z,54.50
2018-03-16T07:06:16.911Z,47.73
2018-03-16T07:08:48.867Z,46.27
2018-03-16T07:11:18.425Z,51.33
2018-03-16T07:13:58.326Z,50.10
2018-03-16T07:16:29.401Z,50.73
2018-03-16T07:19:00.986Z,48.77
2018-03-16T07:21:42.746Z,49.83
2018-03-16T07:24:24.649Z,44.08
2018-03-16T07:29:49.183Z,46.23
2018-03-16T07:35:15.561Z,45.03
2018-03-16T07:37:43.519Z,46.95
2018-03-16T07:40:12.461Z,41.47
2018-03-16T07:42:41.889Z,50.73
2018-03-16T07:45:09.465Z,44.07
2018-03-16T07:47:37.092Z,45.77
2018-03-16T07:50:04.588Z,48.63
2018-03-16T07:52:32.137Z,40.78
2018-03-16T07:54:59.677Z,42.13
2018-03-16T07:57:28.544Z,41.50
2018-03-16T07:59:57.788Z,43.08
2018-03-16T08:02:25.377Z,41.65
2018-03-16T08:04:54.973Z,37.53
2018-03-16T08:07:23.313Z,32.53
2018-03-16T08:09:51.265Z,37.50
2018-03-16T08:12:19.531Z,35.40
2018-03-16T08:14:47.088Z,35.87
2018-03-16T08:17:15.155Z,34.50
2018-03-16T08:19:42.792Z,34.88
2018-03-16T08:34:22.760Z,30.65
2018-03-16T08:36:50.471Z,33.33
2018-03-16T08:39:19.406Z,30.25
2018-03-16T09:58:29.442Z,28.70
2018-03-16T10:01:00.964Z,25.70
2018-03-16T10:06:15.322Z,30.63
2018-03-16T10:08:59.873Z,29.60
2018-03-16T10:11:37.716Z,30.67
2018-03-16T10:14:13.786Z,27.47
2018-03-16T10:22:17.067Z,30.15
2018-03-16T10:24:49.534Z,27.10
2018-03-16T10:35:51.366Z,29.33
2018-03-16T10:38:19.457Z,37.00
2018-03-16T10:40:47.138Z,31.57
2018-03-16T10:43:14.758Z,30.60
2018-03-16T10:45:52.413Z,27.08
2018-03-16T10:48:20.234Z,32.10
2018-03-16T10:50:47.924Z,31.60
2018-03-16T10:56:16.479Z,38.43
2018-03-16T10:58:49.399Z,42.00
2018-03-16T11:01:19.177Z,39.03
2018-03-16T11:31:49.950Z,44.40
2018-03-16T11:58:44.143Z,33.08
2018-03-16T12:01:13.210Z,26.90
2018-03-16T12:03:44.035Z,30.58
2018-03-16T12:06:11.700Z,31.70
2018-03-16T12:08:45.289Z,26.70
2018-03-16T12:11:17.070Z,24.08
2018-03-16T12:13:44.839Z,23.30
2018-03-16T12:16:14.738Z,22.47
2018-03-16T12:18:42.373Z,24.17
2018-03-16T12:21:09.953Z,23.50
2018-03-16T12:23:39.401Z,23.20
2018-03-16T12:26:07.214Z,24.23
2018-03-16T12:28:49.950Z,23.60
2018-03-16T12:31:13.813Z,26.25
2018-03-16T12:33:41.528Z,24.33
2018-03-16T12:36:10.002Z,26.90
2018-03-16T12:38:37.648Z,26.40
2018-03-16T12:41:09.447Z,24.87
2018-03-16T12:43:37.253Z,28.73
2018-03-16T12:46:04.861Z,25.60
2018-03-16T12:48:37.734Z,31.20
2018-03-16T12:51:05.276Z,28.33
2018-03-16T12:53:32.863Z,28.90
2018-03-16T12:56:00.426Z,28.73
2018-03-16T12:58:28.025Z,34.95
2018-03-16T13:00:55.570Z,25.20
2018-03-16T13:03:23.297Z,30.50
2018-03-16T13:05:50.870Z,28.63
2018-03-16T13:08:21.166Z,31.13
2018-03-16T13:10:53.525Z,41.55
2018-03-16T13:13:22.024Z,26.00
2018-03-16T13:15:49.613Z,28.80
2018-03-16T13:18:17.192Z,25.47
2018-03-16T13:20:44.780Z,24.07
2018-03-16T13:23:12.383Z,28.00
2018-03-16T13:25:40.694Z,24.42
2018-03-16T13:28:08.253Z,26.50
2018-03-16T13:30:35.786Z,24.98
2018-03-16T13:33:03.389Z,24.70
2018-03-16T13:35:30.925Z,22.57
2018-03-16T13:37:58.524Z,23.23
2018-03-16T13:40:26.098Z,22.97
2018-03-16T13:42:53.650Z,22.10
2018-03-16T13:45:21.198Z,23.00
2018-03-16T13:47:48.787Z,19.50
2018-03-16T13:50:16.454Z,19.47
2018-03-16T13:52:44.021Z,17.00
2018-03-16T13:55:11.624Z,15.10
2018-03-16T13:57:39.205Z,19.90
2018-03-16T14:00:06.773Z,23.40
2018-03-16T14:02:34.364Z,17.23
2018-03-16T14:05:01.901Z,18.57
2018-03-16T14:07:29.470Z,22.77
2018-03-16T14:09:57.113Z,23.30
2018-03-16T14:12:25.635Z,25.02
2018-03-16T14:14:53.235Z,20.07
2018-03-16T14:17:20.844Z,17.97
2018-03-16T14:19:48.598Z,23.27
2018-03-16T14:22:16.152Z,24.43
2018-03-16T14:24:43.726Z,20.55
2018-03-16T14:27:11.307Z,23.97
2018-03-16T14:29:38.860Z,22.83
2018-03-16T14:32:06.429Z,26.52
2018-03-16T14:34:34.011Z,20.53
2018-03-16T14:37:01.658Z,23.60
2018-03-16T14:39:29.241Z,29.43
2018-03-16T14:41:56.857Z,24.45
2018-03-16T14:44:24.407Z,27.00
2018-03-16T14:46:51.958Z,25.93
2018-03-16T14:49:19.618Z,24.37
2018-03-16T14:51:47.226Z,28.77
2018-03-16T14:54:14.800Z,27.00
2018-03-16T14:56:42.384Z,30.93
2018-03-16T14:59:10.043Z,25.27
2018-03-16T15:01:39.461Z,29.70
2018-03-16T15:04:07.090Z,33.97
2018-03-16T15:06:35.389Z,33.65
2018-03-16T15:09:03.015Z,35.43
2018-03-16T15:11:30.563Z,31.40
2018-03-16T15:13:58.158Z,30.83
2018-03-16T15:16:25.783Z,28.33
2018-03-16T15:18:53.443Z,27.03
2018-03-16T15:21:20.975Z,32.00
2018-03-16T15:23:48.506Z,28.17
2018-03-16T15:26:16.827Z,29.10
2018-03-16T15:28:45.300Z,26.15
2018-03-16T15:31:12.977Z,32.30
2018-03-16T15:33:40.550Z,28.43
2018-03-16T15:36:08.120Z,24.40
2018-03-16T15:38:35.725Z,23.87
2018-03-16T15:41:03.346Z,23.13
2018-03-16T15:43:30.966Z,28.40
2018-03-16T15:45:58.588Z,22.73
2018-03-16T15:48:26.128Z,28.33
2018-03-16T15:50:53.806Z,28.15
2018-03-16T15:53:21.381Z,29.40
2018-03-16T15:55:49.606Z,26.27
2018-03-16T15:58:17.232Z,31.90
2018-03-16T16:00:44.848Z,25.92
2018-03-16T16:03:12.437Z,27.53
2018-03-16T16:05:40.298Z,26.93
2018-03-16T16:08:07.857Z,24.10
2018-03-16T16:10:35.462Z,22.43
2018-03-16T16:13:04.400Z,28.33
2018-03-16T16:15:33.807Z,26.37
2018-03-16T16:18:03.430Z,27.10
2018-03-16T16:20:34.251Z,28.52
2018-03-16T16:23:03.114Z,27.92
2018-03-16T16:25:32.201Z,24.17
2018-03-16T16:28:03.930Z,27.05
2018-03-16T16:30:33.545Z,25.33
2018-03-16T16:33:01.718Z,27.03
2018-03-16T16:35:30.084Z,22.80
2018-03-16T16:37:58.392Z,29.58
2018-03-16T16:40:26.490Z,27.10
2018-03-16T16:42:54.926Z,28.07
2018-03-16T16:45:23.000Z,32.77
2018-03-16T16:47:50.644Z,26.67
2018-03-16T16:50:18.204Z,28.50
2018-03-16T16:52:46.751Z,30.50
2018-03-16T16:55:14.384Z,27.53
2018-03-16T16:57:42.092Z,28.80
2018-03-16T17:00:09.790Z,27.23
2018-03-16T17:02:37.359Z,30.20
2018-03-16T17:05:04.941Z,22.33
2018-03-16T17:07:32.509Z,24.83
2018-03-16T17:10:00.088Z,23.63
2018-03-16T17:12:28.587Z,23.50
2018-03-16T17:14:56.186Z,27.50
2018-03-16T17:17:24.203Z,24.23
2018-03-16T17:19:51.782Z,23.87
2018-03-16T17:22:19.363Z,19.93
2018-03-16T17:24:46.892Z,20.60
2018-03-16T17:27:14.470Z,22.83
2018-03-16T17:29:42.069Z,23.37
2018-03-16T17:32:10.171Z,18.10
2018-03-16T17:34:37.691Z,18.43
2018-03-16T17:37:06.542Z,18.50
2018-03-16T17:39:34.108Z,16.57
2018-03-16T17:42:01.676Z,16.60
2018-03-16T17:44:29.248Z,10.87
2018-03-16T17:46:56.865Z,15.25
2018-03-16T17:49:24.418Z,14.30
2018-03-16T17:51:52.961Z,16.67
2018-03-16T17:54:20.555Z,12.27
2018-03-16T17:56:48.122Z,10.93
2018-03-16T17:59:15.707Z,13.13
2018-03-16T18:01:43.265Z,11.83
2018-03-16T18:04:10.858Z,12.68
2018-03-16T18:06:38.467Z,19.10
2018-03-16T18:09:06.766Z,13.30
2018-03-16T18:11:34.422Z,14.80
2018-03-16T18:14:01.972Z,12.20
2018-03-16T18:16:29.524Z,15.57
2018-03-16T18:18:57.111Z,13.33
2018-03-16T18:21:24.786Z,14.60
2018-03-16T18:23:53.091Z,18.05
2018-03-16T18:26:21.163Z,15.20
2018-03-16T18:28:50.202Z,11.23
2018-03-16T18:31:18.377Z,17.23
2018-03-16T18:33:45.942Z,13.60
2018-03-16T18:36:13.579Z,15.07
2018-03-16T18:38:41.110Z,13.23
2018-03-16T18:41:09.102Z,15.10
2018-03-16T18:43:36.667Z,16.10
2018-03-16T18:46:04.400Z,13.20
2018-03-16T18:48:32.001Z,17.17
2018-03-16T18:50:59.565Z,15.85
2018-03-16T18:53:27.094Z,15.93
2018-03-16T18:55:54.668Z,15.57
2018-03-16T18:58:22.250Z,17.50
2018-03-16T19:00:49.815Z,14.00
2018-03-16T19:03:17.359Z,16.97
2018-03-16T19:05:44.912Z,14.57
2018-03-16T19:08:12.446Z,14.90
2018-03-16T19:10:40.402Z,16.47
2018-03-16T19:13:08.333Z,20.50
2018-03-16T19:15:35.894Z,17.47
2018-03-16T19:18:03.433Z,14.23
2018-03-16T19:20:30.992Z,17.20
2018-03-16T19:22:58.542Z,17.13
2018-03-16T19:25:26.172Z,14.65
2018-03-16T19:27:53.714Z,16.30
2018-03-16T19:30:21.272Z,14.00
2018-03-16T19:32:48.888Z,17.60
2018-03-16T19:35:16.729Z,15.13
2018-03-16T19:37:44.707Z,14.93
2018-03-16T19:40:12.314Z,19.67
2018-03-16T19:42:39.974Z,18.83
2018-03-16T19:45:07.512Z,18.40
2018-03-16T19:47:35.143Z,15.00
2018-03-16T19:50:03.125Z,18.37
2018-03-16T19:52:30.670Z,20.27
2018-03-16T19:54:58.648Z,18.43
2018-03-16T19:57:26.267Z,21.15
2018-03-16T19:59:53.846Z,18.97
2018-03-16T20:02:21.475Z,20.30
2018-03-16T20:04:48.998Z,22.17
2018-03-16T20:07:16.595Z,21.60
2018-03-16T20:09:44.123Z,16.63
2018-03-16T20:12:11.712Z,21.30
2018-03-16T20:14:39.304Z,18.47
2018-03-16T20:17:06.882Z,22.55
2018-03-16T20:19:34.858Z,24.87
2018-03-16T20:22:02.823Z,19.03
2018-03-16T20:24:30.384Z,22.30
2018-03-16T20:26:57.980Z,24.10
2018-03-16T20:29:25.548Z,22.73
2018-03-16T20:31:53.098Z,29.33
2018-03-16T20:34:20.676Z,25.30
2018-03-16T20:36:48.276Z,24.93
2018-03-16T20:39:15.841Z,27.90
2018-03-16T20:41:43.446Z,28.20
2018-03-16T20:44:10.984Z,28.70
2018-03-16T20:46:38.586Z,28.87
2018-03-16T20:49:06.151Z,31.73
2018-03-16T20:51:33.729Z,29.17
2018-03-16T20:54:01.684Z,40.17
2018-03-16T20:56:29.273Z,31.97
2018-03-16T20:58:57.347Z,32.47
2018-03-16T21:01:24.858Z,36.40
2018-03-16T21:03:52.467Z,27.37
2018-03-16T21:06:20.121Z,36.85
2018-03-16T21:08:47.673Z,32.27
2018-03-16T21:11:15.666Z,33.83
2018-03-16T21:13:43.345Z,28.60
2018-03-16T21:16:11.021Z,34.43
2018-03-16T21:18:38.578Z,33.50
2018-03-16T21:21:06.183Z,33.87
2018-03-16T21:23:34.148Z,34.38
2018-03-16T21:26:02.171Z,40.65
2018-03-16T21:28:29.755Z,36.63
2018-03-16T21:30:57.354Z,44.53
2018-03-16T21:33:26.267Z,36.63
2018-03-16T21:35:53.985Z,40.13
2018-03-16T21:38:21.541Z,43.23
2018-03-16T21:40:49.148Z,36.00
2018-03-16T21:43:16.814Z,40.53
2018-03-16T21:45:44.376Z,35.00
2018-03-16T21:48:12.034Z,39.57
2018-03-16T21:50:39.646Z,39.60
2018-03-16T21:53:07.541Z,38.37
2018-03-16T21:55:35.186Z,42.60
2018-03-16T21:58:03.146Z,41.63
2018-03-16T22:00:31.102Z,48.05
2018-03-16T22:02:58.891Z,41.55
2018-03-16T22:05:26.476Z,42.77
2018-03-16T22:07:54.038Z,47.80
2018-03-16T22:10:21.687Z,44.97
2018-03-16T22:12:49.617Z,43.80
2018-03-16T22:15:17.206Z,43.73
2018-03-16T22:17:44.883Z,43.93
2018-03-16T22:20:12.492Z,50.20
2018-03-16T22:22:40.066Z,45.20
2018-03-16T22:25:07.667Z,45.30
2018-03-16T22:27:35.229Z,44.50
2018-03-16T22:30:02.810Z,44.38
2018-03-16T22:32:30.426Z,38.77
2018-03-16T22:34:58.035Z,50.58
2018-03-16T22:37:27.786Z,42.53
2018-03-16T22:39:55.508Z,43.10
2018-03-16T22:42:23.088Z,46.67
2018-03-16T22:44:50.707Z,41.80
2018-03-16T22:47:18.250Z,45.73
2018-03-16T22:49:46.102Z,39.03
2018-03-16T22:52:13.806Z,40.67
2018-03-16T22:54:41.381Z,44.50
2018-03-16T22:57:09.278Z,41.13
2018-03-16T22:59:36.926Z,41.80
2018-03-16T23:02:04.485Z,48.47
2018-03-16T23:04:32.052Z,48.67
2018-03-16T23:06:59.912Z,47.85
2018-03-16T23:09:27.466Z,43.00
2018-03-16T23:11:55.109Z,40.57
2018-03-16T23:14:23.259Z,38.33
2018-03-16T23:16:50.811Z,41.10
2018-03-16T23:19:18.400Z,40.47
2018-03-16T23:21:46.987Z,41.63
2018-03-16T23:24:14.625Z,34.07
2018-03-16T23:26:42.312Z,38.30
2018-03-16T23:29:09.948Z,38.13
2018-03-16T23:31:39.501Z,37.33
2018-03-16T23:34:07.145Z,31.33
2018-03-16T23:36:34.678Z,30.88
2018-03-16T23:39:02.252Z,34.13
2018-03-16T23:41:29.911Z,35.42
2018-03-16T23:43:57.587Z,34.50
2018-03-16T23:46:25.199Z,36.27
2018-03-16T23:48:52.800Z,35.67
2018-03-16T23:51:20.385Z,35.80
2018-03-16T23:53:47.921Z,35.53
2018-03-16T23:56:15.600Z,34.63
2018-03-16T23:58:43.157Z,32.13
